createdAt,value
2022-08-16T00:02:33.024Z,24.92
2022-08-16T00:05:00.497Z,24.90
2022-08-16T00:07:29.502Z,28.63
2022-08-16T00:09:57.793Z,26.60
2022-08-16T00:12:28.436Z,25.45
2022-08-16T00:14:57.210Z,27.90
2022-08-16T00:17:25.540Z,25.15
2022-08-16T00:19:55.186Z,23.15
2022-08-16T00:22:24.760Z,34.53
2022-08-16T00:24:54.545Z,24.92
2022-08-16T00:27:22.716Z,26.02
2022-08-16T00:30:08.754Z,24.55
2022-08-16T00:32:44.206Z,23.58
2022-08-16T00:35:15.770Z,27.60
2022-08-16T00:37:56.303Z,26.25
2022-08-16T00:43:19.127Z,27.13
2022-08-16T00:46:33.184Z,25.48
2022-08-16T00:48:53.848Z,28.77
2022-08-16T00:51:23.514Z,28.92
2022-08-16T00:53:53.216Z,34.42
2022-08-16T00:56:56.876Z,30.40
2022-08-16T00:59:15.282Z,33.60
2022-08-16T01:01:44.765Z,27.90
2022-08-16T01:04:29.646Z,38.60
2022-08-16T01:07:03.761Z,27.80
2022-08-16T01:09:37.362Z,28.27
2022-08-16T01:12:08.498Z,26.98
2022-08-16T01:14:43.605Z,26.88
2022-08-16T01:17:14.524Z,30.95
2022-08-16T01:19:50.032Z,28.00
2022-08-16T01:22:47.062Z,29.80
2022-08-16T01:25:22.125Z,28.90
2022-08-16T01:27:52.802Z,27.88
2022-08-16T01:30:27.498Z,29.88
2022-08-16T01:33:14.157Z,26.00
2022-08-16T01:35:52.896Z,30.83
2022-08-16T01:38:28.450Z,36.85
2022-08-16T01:41:03.544Z,38.25
2022-08-16T01:43:33.533Z,39.42
2022-08-16T01:46:30.160Z,37.72
2022-08-16T01:49:02.487Z,46.28
2022-08-16T01:51:30.316Z,40.75
2022-08-16T01:53:58.304Z,41.05
2022-08-16T01:56:30.236Z,39.85
2022-08-16T01:59:04.411Z,38.67
2022-08-16T02:01:32.878Z,37.05
2022-08-16T02:04:10.425Z,37.65
2022-08-16T02:06:46.078Z,41.35
2022-08-16T02:09:19.868Z,43.60
2022-08-16T02:11:54.686Z,39.35
2022-08-16T02:14:27.617Z,42.58
2022-08-16T02:16:58.508Z,40.65
2022-08-16T02:19:58.457Z,38.17
2022-08-16T02:22:33.795Z,42.45
2022-08-16T02:25:06.745Z,37.50
2022-08-16T02:27:35.197Z,45.72
2022-08-16T02:30:07.541Z,36.30
2022-08-16T02:32:50.455Z,42.45
2022-08-16T02:35:23.137Z,41.58
2022-08-16T02:37:52.961Z,42.42
2022-08-16T02:40:24.489Z,36.28
2022-08-16T02:42:53.586Z,33.63
2022-08-16T02:45:24.871Z,42.65
2022-08-16T02:48:00.183Z,40.92
2022-08-16T02:50:54.814Z,36.90
2022-08-16T02:53:18.015Z,36.70
2022-08-16T02:55:46.182Z,34.85
2022-08-16T02:58:18.268Z,43.10
2022-08-16T03:00:45.456Z,40.58
2022-08-16T03:03:12.723Z,40.72
2022-08-16T03:05:50.047Z,43.92
2022-08-16T03:08:50.466Z,39.75
2022-08-16T03:11:16.692Z,54.80
2022-08-16T03:13:47.997Z,49.15
2022-08-16T03:16:36.610Z,51.60
2022-08-16T03:19:07.677Z,57.20
2022-08-16T03:21:37.397Z,43.25
2022-08-16T03:24:28.533Z,45.10
2022-08-16T03:27:02.724Z,45.35
2022-08-16T03:29:32.957Z,60.13
2022-08-16T03:32:03.380Z,39.58
2022-08-16T03:34:33.321Z,36.47
2022-08-16T03:37:00.532Z,44.58
2022-08-16T03:39:27.689Z,44.88
2022-08-16T03:41:59.767Z,31.73
2022-08-16T03:44:44.429Z,37.53
2022-08-16T03:47:18.547Z,29.02
2022-08-16T03:52:23.672Z,24.67
2022-08-16T03:54:58.044Z,24.65
2022-08-16T04:00:20.301Z,33.35
2022-08-16T04:03:09.613Z,23.55
2022-08-16T04:05:47.254Z,31.48
2022-08-16T04:08:22.495Z,27.65
2022-08-16T04:13:59.270Z,30.77
2022-08-16T04:16:09.344Z,28.30
2022-08-16T04:19:02.233Z,28.83
2022-08-16T04:24:00.737Z,29.40
2022-08-16T04:26:30.754Z,32.15
2022-08-16T04:29:17.240Z,26.25
2022-08-16T04:31:56.385Z,25.77
2022-08-16T04:34:30.107Z,22.27
2022-08-16T04:37:00.995Z,28.05
2022-08-16T04:39:36.532Z,24.15
2022-08-16T04:42:11.444Z,28.45
2022-08-16T04:44:53.959Z,25.50
2022-08-16T04:47:31.609Z,28.42
2022-08-16T04:50:15.441Z,31.65
2022-08-16T04:53:03.176Z,26.20
2022-08-16T04:55:38.262Z,23.63
2022-08-16T04:58:45.901Z,27.75
2022-08-16T05:00:57.372Z,28.02
2022-08-16T05:03:24.289Z,29.42
2022-08-16T05:05:59.120Z,26.00
2022-08-16T05:08:31.300Z,29.60
2022-08-16T05:11:08.300Z,26.70
2022-08-16T05:13:41.337Z,27.40
2022-08-16T05:16:31.376Z,27.08
2022-08-16T05:19:06.284Z,37.10
2022-08-16T05:21:41.091Z,30.67
2022-08-16T05:24:10.662Z,29.45
2022-08-16T05:26:43.105Z,33.03
2022-08-16T05:29:14.749Z,32.10
2022-08-16T05:31:56.864Z,29.13
2022-08-16T05:34:25.071Z,35.58
2022-08-16T05:36:57.225Z,30.65
2022-08-16T05:39:29.285Z,25.80
2022-08-16T05:42:00.780Z,26.30
2022-08-16T05:44:28.365Z,26.15
2022-08-16T05:47:00.342Z,26.58
2022-08-16T05:49:38.364Z,36.20
2022-08-16T05:52:13.620Z,31.98
2022-08-16T05:54:47.486Z,29.98
2022-08-16T05:57:26.111Z,24.90
2022-08-16T06:00:07.100Z,28.63
2022-08-16T06:02:44.671Z,28.88
2022-08-16T06:05:30.746Z,22.55
2022-08-16T06:08:04.558Z,26.02
2022-08-16T06:10:35.636Z,24.20
2022-08-16T06:13:04.315Z,24.02
2022-08-16T06:15:31.736Z,27.08
2022-08-16T06:17:59.411Z,22.50
2022-08-16T06:20:35.176Z,28.75
2022-08-16T06:23:18.091Z,30.08
2022-08-16T06:26:07.955Z,27.27
2022-08-16T06:28:39.606Z,28.98
2022-08-16T06:31:13.571Z,29.90
2022-08-16T06:33:44.736Z,29.33
2022-08-16T06:36:14.287Z,35.33
2022-08-16T06:38:56.085Z,33.03
2022-08-16T06:41:46.184Z,32.65
2022-08-16T06:44:38.716Z,32.15
2022-08-16T06:47:17.038Z,38.08
2022-08-16T06:49:52.720Z,38.55
2022-08-16T06:52:59.865Z,39.00
2022-08-16T06:55:13.622Z,33.80
2022-08-16T06:57:46.147Z,34.05
2022-08-16T07:00:24.055Z,36.72
2022-08-16T07:03:27.419Z,29.92
2022-08-16T07:05:52.319Z,37.97
2022-08-16T07:08:27.596Z,30.73
2022-08-16T07:10:55.517Z,40.22
2022-08-16T07:13:51.708Z,32.15
2022-08-16T07:16:15.357Z,28.38
2022-08-16T07:21:07.864Z,32.60
2022-08-16T07:23:39.256Z,29.15
2022-08-16T07:26:24.878Z,26.40
2022-08-16T07:28:55.175Z,30.27
2022-08-16T07:31:22.921Z,27.20
2022-08-16T07:33:51.899Z,26.23
2022-08-16T07:36:25.752Z,26.67
2022-08-16T07:38:53.179Z,32.95
2022-08-16T07:41:21.957Z,37.03
2022-08-16T07:43:55.757Z,32.92
2022-08-16T07:46:37.465Z,29.17
2022-08-16T07:49:14.552Z,31.13
2022-08-16T07:51:41.558Z,27.77
2022-08-16T07:54:17.003Z,26.05
2022-08-16T07:56:53.132Z,26.80
2022-08-16T07:59:20.288Z,26.27
2022-08-16T08:01:47.658Z,24.60
2022-08-16T08:04:20.299Z,20.13
2022-08-16T08:06:51.140Z,22.40
2022-08-16T08:09:18.703Z,19.35
2022-08-16T08:12:01.254Z,21.65
2022-08-16T08:14:37.536Z,20.20
2022-08-16T08:17:08.631Z,23.15
2022-08-16T08:19:37.361Z,21.97
2022-08-16T08:22:21.985Z,22.13
2022-08-16T08:24:53.789Z,24.98
2022-08-16T08:27:26.996Z,22.45
2022-08-16T08:30:49.969Z,24.17
2022-08-16T08:32:58.023Z,20.92
2022-08-16T08:35:30.471Z,19.77
2022-08-16T08:37:58.923Z,18.55
2022-08-16T08:40:30.016Z,17.65
2022-08-16T08:43:00.622Z,18.33
2022-08-16T08:45:48.824Z,17.52
2022-08-16T08:48:34.219Z,25.40
2022-08-16T08:51:15.314Z,19.90
2022-08-16T08:53:58.047Z,16.92
2022-08-16T08:56:32.305Z,19.15
2022-08-16T08:59:13.091Z,18.83
2022-08-16T09:01:56.613Z,25.52
2022-08-16T09:04:27.473Z,20.40
2022-08-16T09:06:55.715Z,20.65
2022-08-16T09:09:23.980Z,18.60
2022-08-16T09:12:04.226Z,21.23
2022-08-16T09:17:11.648Z,17.92
2022-08-16T09:19:44.428Z,22.05
2022-08-16T09:22:19.797Z,25.83
2022-08-16T09:24:53.633Z,26.85
2022-08-16T09:27:25.353Z,21.08
2022-08-16T09:30:00.029Z,26.30
2022-08-16T09:32:30.577Z,18.27
2022-08-16T09:34:59.427Z,25.55
2022-08-16T09:37:29.677Z,22.10
2022-08-16T09:39:59.509Z,21.63
2022-08-16T09:42:27.712Z,22.23
2022-08-16T09:45:11.908Z,23.80
2022-08-16T09:47:56.538Z,20.85
2022-08-16T09:50:36.743Z,26.15
2022-08-16T09:53:15.440Z,24.50
2022-08-16T09:58:10.618Z,20.38
2022-08-16T10:00:44.145Z,22.10
2022-08-16T10:03:11.803Z,29.60
2022-08-16T10:05:38.591Z,21.33
2022-08-16T10:08:25.803Z,20.23
2022-08-16T10:11:11.103Z,21.30
2022-08-16T10:13:39.601Z,21.60
2022-08-16T10:18:56.319Z,24.50
2022-08-16T10:21:09.552Z,24.65
2022-08-16T10:23:36.705Z,22.67
2022-08-16T10:28:54.089Z,18.05
2022-08-16T10:31:44.153Z,20.30
2022-08-16T10:34:30.980Z,18.95
2022-08-16T10:36:55.076Z,27.80
2022-08-16T10:39:21.690Z,20.83
2022-08-16T10:41:51.219Z,19.45
2022-08-16T10:44:17.868Z,20.63
2022-08-16T10:46:45.233Z,16.77
2022-08-16T10:49:13.096Z,14.65
2022-08-16T10:52:02.836Z,17.88
2022-08-16T10:54:32.942Z,14.63
2022-08-16T10:57:01.348Z,15.93
2022-08-16T10:59:45.985Z,23.00
2022-08-16T11:03:37.751Z,14.50
2022-08-16T11:05:14.160Z,18.30
2022-08-16T11:07:52.011Z,18.90
2022-08-16T11:13:57.274Z,14.63
2022-08-16T11:19:05.554Z,14.35
2022-08-16T11:21:37.665Z,16.15
2022-08-16T11:24:41.558Z,10.40
2022-08-16T11:27:23.463Z,15.68
2022-08-16T11:32:31.228Z,17.08
2022-08-16T11:35:10.587Z,19.48
2022-08-16T11:40:52.811Z,16.92
2022-08-16T11:43:22.887Z,22.23
2022-08-16T11:45:54.041Z,16.55
2022-08-16T11:48:25.156Z,14.23
2022-08-16T11:50:52.537Z,15.17
2022-08-16T11:53:21.089Z,20.23
2022-08-16T11:55:54.471Z,25.70
2022-08-16T11:58:25.387Z,13.40
2022-08-16T12:00:53.801Z,14.57
2022-08-16T12:03:34.622Z,16.88
2022-08-16T12:06:11.174Z,14.15
2022-08-16T12:08:53.111Z,14.20
2022-08-16T12:11:19.679Z,19.50
2022-08-16T12:13:49.356Z,15.23
2022-08-16T12:16:20.669Z,14.88
2022-08-16T12:21:21.085Z,15.38
2022-08-16T12:23:49.248Z,15.63
2022-08-16T12:26:17.204Z,12.23
2022-08-16T12:28:55.908Z,15.48
2022-08-16T12:31:24.536Z,18.45
2022-08-16T12:33:54.591Z,14.18
2022-08-16T12:36:26.218Z,15.80
2022-08-16T12:38:56.999Z,15.88
2022-08-16T12:41:24.575Z,14.65
2022-08-16T12:43:57.268Z,12.55
2022-08-16T12:46:28.616Z,19.80
2022-08-16T12:49:00.160Z,14.48
2022-08-16T12:51:59.225Z,13.95
2022-08-16T12:54:23.922Z,19.67
2022-08-16T12:56:50.874Z,15.35
2022-08-16T12:59:20.454Z,12.60
2022-08-16T13:01:47.974Z,12.35
2022-08-16T13:04:20.222Z,15.07
2022-08-16T13:06:48.908Z,13.75
2022-08-16T13:09:26.365Z,17.13
2022-08-16T13:12:17.609Z,67.57
2022-08-16T13:14:45.144Z,77.60
2022-08-16T13:17:18.695Z,20.55
2022-08-16T13:22:03.294Z,14.02
2022-08-16T13:24:29.981Z,18.35
2022-08-16T13:26:56.762Z,10.68
2022-08-16T13:29:23.620Z,83.82
2022-08-16T13:31:50.500Z,11.45
2022-08-16T13:34:18.763Z,23.23
2022-08-16T13:36:49.281Z,20.35
2022-08-16T13:39:18.075Z,11.20
2022-08-16T13:41:44.792Z,61.38
2022-08-16T13:44:21.229Z,23.08
2022-08-16T13:46:47.835Z,15.80
2022-08-16T13:49:14.660Z,17.25
2022-08-16T13:51:41.296Z,17.63
2022-08-16T13:54:08.171Z,16.05
2022-08-16T13:56:39.655Z,18.42
2022-08-16T13:59:20.643Z,14.02
2022-08-16T14:01:54.536Z,14.30
2022-08-16T14:04:28.138Z,13.43
2022-08-16T14:06:57.137Z,18.75
2022-08-16T14:09:24.548Z,21.13
2022-08-16T14:11:54.450Z,13.30
2022-08-16T14:14:29.297Z,17.35
2022-08-16T14:17:01.613Z,12.50
2022-08-16T14:19:29.820Z,14.80
2022-08-16T14:22:15.092Z,16.92
2022-08-16T14:24:47.707Z,16.35
2022-08-16T14:27:17.093Z,14.23
2022-08-16T14:29:45.159Z,15.35
2022-08-16T14:32:33.644Z,14.80
2022-08-16T14:35:10.998Z,18.15
2022-08-16T14:37:39.907Z,16.70
2022-08-16T14:40:13.708Z,14.40
2022-08-16T14:42:41.496Z,16.13
2022-08-16T14:45:13.420Z,14.93
2022-08-16T14:47:40.684Z,15.27
2022-08-16T14:50:13.008Z,14.85
2022-08-16T14:52:55.132Z,16.13
2022-08-16T14:57:54.597Z,14.35
2022-08-16T15:00:33.013Z,15.32
2022-08-16T15:03:04.592Z,13.02
2022-08-16T15:05:32.226Z,19.27
2022-08-16T15:07:59.105Z,15.05
2022-08-16T15:11:41.944Z,14.38
2022-08-16T15:16:35.436Z,20.42
2022-08-16T15:19:03.473Z,16.58
2022-08-16T15:21:30.749Z,19.48
2022-08-16T15:23:58.803Z,16.60
2022-08-16T15:26:42.627Z,18.75
2022-08-16T15:29:12.030Z,12.18
2022-08-16T15:31:44.388Z,18.92
2022-08-16T15:34:22.122Z,16.58
2022-08-16T15:36:53.120Z,17.27
2022-08-16T15:39:30.483Z,17.95
2022-08-16T15:42:11.057Z,16.63
2022-08-16T15:44:50.880Z,12.50
2022-08-16T15:47:25.965Z,15.32
2022-08-16T15:49:55.581Z,19.30
2022-08-16T15:52:34.557Z,17.73
2022-08-16T15:55:07.400Z,19.63
2022-08-16T15:57:41.543Z,20.55
2022-08-16T16:00:20.627Z,16.40
2022-08-16T16:02:49.312Z,18.98
2022-08-16T16:05:17.043Z,15.32
2022-08-16T16:07:56.724Z,18.05
2022-08-16T16:10:32.077Z,15.18
2022-08-16T16:13:01.668Z,19.02
2022-08-16T16:15:32.961Z,22.38
2022-08-16T16:18:09.049Z,21.77
2022-08-16T16:20:39.654Z,17.77
2022-08-16T16:23:10.459Z,17.10
2022-08-16T16:25:38.851Z,14.38
2022-08-16T16:28:12.706Z,18.08
2022-08-16T16:30:56.540Z,18.13
2022-08-16T16:35:55.698Z,17.73
2022-08-16T16:38:28.737Z,21.63
2022-08-16T16:40:55.897Z,20.75
2022-08-16T16:43:26.084Z,18.90
2022-08-16T16:45:58.794Z,26.60
2022-08-16T16:48:34.386Z,18.85
2022-08-16T16:51:09.445Z,21.92
2022-08-16T16:53:40.962Z,20.92
2022-08-16T16:56:19.317Z,21.63
2022-08-16T16:59:00.939Z,17.15
2022-08-16T17:01:56.682Z,24.15
2022-08-16T17:04:27.436Z,19.58
2022-08-16T17:07:01.473Z,25.38
2022-08-16T17:09:28.343Z,40.53
2022-08-16T17:11:56.951Z,17.17
2022-08-16T17:14:33.313Z,27.98
2022-08-16T17:17:06.514Z,25.65
2022-08-16T17:19:33.982Z,22.58
2022-08-16T17:22:14.303Z,20.42
2022-08-16T17:24:50.768Z,20.40
2022-08-16T17:27:33.156Z,18.50
2022-08-16T17:30:14.917Z,19.58
2022-08-16T17:35:37.140Z,21.17
2022-08-16T17:38:06.970Z,23.63
2022-08-16T17:39:27.125Z,27.73
2022-08-16T17:40:47.064Z,22.63
2022-08-16T17:43:32.339Z,17.42
2022-08-16T17:45:59.383Z,20.02
2022-08-16T17:48:27.081Z,28.83
2022-08-16T17:50:54.999Z,23.75
2022-08-16T17:53:22.132Z,23.23
2022-08-16T17:55:50.451Z,23.85
2022-08-16T17:58:22.624Z,19.63
2022-08-16T18:00:53.586Z,26.70
2022-08-16T18:04:06.865Z,21.08
2022-08-16T18:06:20.873Z,22.05
2022-08-16T18:08:48.356Z,23.48
2022-08-16T18:11:26.012Z,26.52
2022-08-16T18:13:54.844Z,21.92
2022-08-16T18:16:21.550Z,28.17
2022-08-16T18:18:48.232Z,21.10
2022-08-16T18:21:33.770Z,24.42
2022-08-16T18:24:00.795Z,23.35
2022-08-16T18:26:27.525Z,24.40
2022-08-16T18:28:54.303Z,23.23
2022-08-16T18:31:20.951Z,19.83
2022-08-16T18:33:47.812Z,24.17
2022-08-16T18:36:20.396Z,25.30
2022-08-16T18:38:49.365Z,21.52
2022-08-16T18:41:17.064Z,23.42
2022-08-16T18:44:14.145Z,27.98
2022-08-16T18:46:30.572Z,23.40
2022-08-16T18:48:57.547Z,25.05
2022-08-16T18:51:25.509Z,24.10
2022-08-16T18:53:52.968Z,30.85
2022-08-16T18:56:19.800Z,24.45
2022-08-16T18:58:46.427Z,26.73
2022-08-16T19:01:13.467Z,26.73
2022-08-16T19:03:40.336Z,29.63
2022-08-16T19:06:14.209Z,27.63
2022-08-16T19:08:43.802Z,26.88
2022-08-16T19:11:14.908Z,35.80
2022-08-16T19:13:44.235Z,28.00
2022-08-16T19:16:12.490Z,27.45
2022-08-16T19:18:39.478Z,30.13
2022-08-16T19:21:07.986Z,31.27
2022-08-16T19:23:37.299Z,18.42
2022-08-16T19:26:24.574Z,26.27
2022-08-16T19:28:58.554Z,28.85
2022-08-16T19:31:34.021Z,28.75
2022-08-16T19:34:02.137Z,25.77
2022-08-16T19:36:35.954Z,27.50
2022-08-16T19:39:06.910Z,25.42
2022-08-16T19:41:40.873Z,29.38
2022-08-16T19:44:08.133Z,38.88
2022-08-16T19:46:35.691Z,30.48
2022-08-16T19:49:03.007Z,28.48
2022-08-16T19:51:30.087Z,23.42
2022-08-16T19:53:56.809Z,38.75
2022-08-16T19:56:25.761Z,31.60
2022-08-16T19:59:17.551Z,40.42
2022-08-16T20:01:42.225Z,27.50
2022-08-16T20:04:12.298Z,37.92
2022-08-16T20:06:40.336Z,32.53
2022-08-16T20:09:07.055Z,25.60
2022-08-16T20:11:35.341Z,30.63
2022-08-16T20:14:02.716Z,32.00
2022-08-16T20:16:29.445Z,32.30
2022-08-16T20:18:56.144Z,30.00
2022-08-16T20:21:22.918Z,33.00
2022-08-16T20:23:49.517Z,29.58
2022-08-16T20:26:16.382Z,24.40
2022-08-16T20:28:52.525Z,29.25
2022-08-16T20:31:24.062Z,33.55
2022-08-16T20:33:52.236Z,32.65
2022-08-16T20:36:19.091Z,29.35
2022-08-16T20:38:47.699Z,32.63
2022-08-16T20:41:16.184Z,29.13
2022-08-16T20:43:43.338Z,31.95
2022-08-16T20:46:10.638Z,33.42
2022-08-16T20:48:37.223Z,32.08
2022-08-16T20:51:04.193Z,40.75
2022-08-16T20:53:30.882Z,34.33
2022-08-16T20:55:57.674Z,29.88
2022-08-16T20:58:24.246Z,28.70
2022-08-16T21:00:50.958Z,30.25
2022-08-16T21:03:17.593Z,32.08
2022-08-16T21:05:45.302Z,34.35
2022-08-16T21:10:41.533Z,26.90
2022-08-16T21:13:13.552Z,30.98
2022-08-16T21:15:40.213Z,32.90
2022-08-16T21:18:06.815Z,32.08
2022-08-16T21:20:34.040Z,31.50
2022-08-16T21:23:05.729Z,33.67
2022-08-16T21:28:38.966Z,38.97
2022-08-16T21:30:49.398Z,39.22
2022-08-16T21:33:18.799Z,44.95
2022-08-16T21:35:47.695Z,38.63
2022-08-16T21:38:30.240Z,37.80
2022-08-16T21:41:00.112Z,40.22
2022-08-16T21:43:31.712Z,39.97
2022-08-16T21:48:35.177Z,39.70
2022-08-16T21:51:05.387Z,37.15
2022-08-16T21:53:33.257Z,33.00
2022-08-16T21:56:01.194Z,35.60
2022-08-16T21:58:28.485Z,30.50
2022-08-16T22:00:55.812Z,36.70
2022-08-16T22:03:23.443Z,32.17
2022-08-16T22:06:05.875Z,38.28
2022-08-16T22:08:45.660Z,35.20
2022-08-16T22:11:22.676Z,33.25
2022-08-16T22:13:57.328Z,41.00
2022-08-16T22:16:26.597Z,32.97
2022-08-16T22:18:53.276Z,29.23
2022-08-16T22:21:20.245Z,33.33
2022-08-16T22:23:55.178Z,34.80
2022-08-16T22:26:30.142Z,28.85
2022-08-16T22:28:59.794Z,30.02
2022-08-16T22:31:27.526Z,29.73
2022-08-16T22:33:56.596Z,31.48
2022-08-16T22:36:28.174Z,28.50
2022-08-16T22:38:58.087Z,28.38
2022-08-16T22:41:25.863Z,30.63
2022-08-16T22:43:52.572Z,24.75
2022-08-16T22:46:19.620Z,29.60
2022-08-16T22:48:50.391Z,28.00
2022-08-16T22:51:19.184Z,30.58
2022-08-16T22:53:45.866Z,31.73
2022-08-16T22:56:12.756Z,29.08
2022-08-16T22:58:39.643Z,29.52
2022-08-16T23:01:08.334Z,34.13
2022-08-16T23:03:36.008Z,36.88
2022-08-16T23:06:06.488Z,38.28
2022-08-16T23:08:39.569Z,38.35
2022-08-16T23:11:14.537Z,42.90
2022-08-16T23:13:49.969Z,43.08
2022-08-16T23:16:34.276Z,37.03
2022-08-16T23:19:07.096Z,34.03
2022-08-16T23:21:35.420Z,39.03
2022-08-16T23:24:02.059Z,41.35
2022-08-16T23:26:43.793Z,42.35
2022-08-16T23:29:23.864Z,33.38
2022-08-16T23:31:53.834Z,37.15
2022-08-16T23:34:21.969Z,41.20
2022-08-16T23:36:48.581Z,37.60
2022-08-16T23:39:15.225Z,37.35
2022-08-16T23:41:41.926Z,37.17
2022-08-16T23:44:44.148Z,36.22
2022-08-16T23:46:55.596Z,34.03
2022-08-16T23:49:58.439Z,41.10
2022-08-16T23:52:10.130Z,32.90
2022-08-16T23:54:37.098Z,34.88
2022-08-16T23:57:03.888Z,34.22
2022-08-16T23:59:31.766Z,35.80
